Aviation Digital Data Service (ADDS)

Output produced by METARs form (2155 UTC 20 June 2019)
found at http://www.aviationweather.gov/metar/data/
 
KWWD 202056Z AUTO 24013G20KT 10SM FEW042 31/23 A2951 RMK AO2 LTG DSNT N AND NW SLP995 T03060233 56017